Flight Track Log - Related Links

Times and Time Zones

All times are in EDT time to prevent confusion due to time zone crossing. See the AFL150 flight status page for this flight to view local times or setup timezone preferences in your user account.

Time Position Orientation Groundspeed Altitude Reporting Facility
EDT Latitude Longitude Course Direction KTS MPH feet Rate Location/Type
Thu 06:34:12 AM 55.9640 37.3640 255° West 173 199 1,800  Level FlightAware ADS-B
Thu 06:34:26 AM 55.9610 37.3450 254° West 165 190 2,500 1,500 Climbing FlightAware ADS-B
Thu 06:34:52 AM 55.9560 37.3090 256° West 187 215 2,800 750 Climbing FlightAware ADS-B
Thu 06:35:22 AM 55.9490 37.2590 256° West 221 254 3,200 1,000 Climbing FlightAware ADS-B
Thu 06:35:46 AM 55.9430 37.2120 257° West 249 287 3,700 1,909 Climbing FlightAware ADS-B
Thu 06:36:06 AM 55.9460 37.1710 277° West 251 289 4,600 2,700 Climbing FlightAware ADS-B
Thu 06:36:26 AM 55.9520 37.1300 285° West 251 289 5,500 2,743 Climbing FlightAware ADS-B
Thu 06:36:41 AM 55.9550 37.0990 280° West 252 290 6,200 2,667 Climbing FlightAware ADS-B
Thu 06:37:11 AM 55.9620 37.0380 282° West 255 293 7,500 2,520 Climbing FlightAware ADS-B
Thu 06:37:31 AM 55.9660 36.9960 280° West 259 298 8,300 2,280 Climbing FlightAware ADS-B
Thu 06:38:01 AM 55.9720 36.9320 280° West 267 307 9,400 2,400 Climbing FlightAware ADS-B
Thu 06:38:36 AM 55.9790 36.8540 279° West 268 308 10,900 2,250 Climbing FlightAware ADS-B
Thu 06:39:21 AM 55.9950 36.7590 287° West 282 325 12,400 1,465 Climbing FlightAware ADS-B
Thu 06:40:02 AM 56.0210 36.6720 298° West 321 369 13,000 1,116 Climbing FlightAware ADS-B
Thu 06:40:47 AM 56.0550 36.5570 298° West 352 405 14,000 1,714 Climbing FlightAware ADS-B
Thu 06:41:26 AM 56.0850 36.4530 297° West 357 411 15,400 2,259 Climbing FlightAware ADS-B
Thu 06:42:12 AM 56.1190 36.3380 298° West 358 412 17,200 2,222 Climbing FlightAware ADS-B
Thu 06:42:47 AM 56.1470 36.2420 298° West 364 419 18,400 1,946 Climbing FlightAware ADS-B
Thu 06:43:26 AM 56.1780 36.1340 297° West 370 426 19,600 1,899 Climbing FlightAware ADS-B
Thu 06:44:06 AM 56.2090 36.0250 297° West 375 432 20,900 1,694 Climbing FlightAware ADS-B
Thu 06:44:51 AM 56.2450 35.9010 298° West 383 441 22,000 1,500 Climbing FlightAware ADS-B
Thu 06:45:22 AM 56.2690 35.8140 296° West 387 445 22,800 1,600 Climbing FlightAware ADS-B
Thu 06:46:06 AM 56.3060 35.6860 298° West 393 452 24,000 1,465 Climbing FlightAware ADS-B
Thu 06:46:48 AM 56.3400 35.5670 297° West 399 459 24,900 1,395 Climbing FlightAware ADS-B
Thu 06:47:32 AM 56.3780 35.4340 297° West 403 464 26,000 1,373 Climbing FlightAware ADS-B
Thu 06:48:11 AM 56.4180 35.3200 302° West 405 466 26,800 1,500 Climbing FlightAware ADS-B
Thu 06:48:56 AM 56.4780 35.2180 317° Northwest 401 461 28,100 1,412 Climbing FlightAware ADS-B
Thu 06:49:36 AM 56.5490 35.1920 349° North 413 475 28,800 1,026 Climbing FlightAware ADS-B
Thu 06:50:12 AM 56.6170 35.1790 354° North 415 478 29,400 960 Climbing FlightAware ADS-B
Thu 06:50:51 AM 56.6950 35.1640 354° North 420 483 30,000 1,214 Climbing FlightAware ADS-B
Thu 06:51:36 AM 56.7800 35.1490 354° North 412 474 31,100 1,200 Climbing FlightAware ADS-B
Thu 06:52:26 AM 56.8750 35.1310 354° North 413 475 31,900 1,000 Climbing FlightAware ADS-B
Thu 06:53:06 AM 56.9490 35.1180 355° North 411 473 32,600 963 Climbing FlightAware ADS-B
Thu 06:53:47 AM 57.0250 35.1030 354° North 411 473 33,200 988 Climbing FlightAware ADS-B
Thu 06:54:31 AM 57.1100 35.0870 354° North 407 468 34,000 565 Climbing FlightAware ADS-B
Thu 06:55:12 AM 57.1860 35.0730 354° North 419 482 34,000  Level FlightAware ADS-B
Thu 06:55:57 AM 57.2740 35.0560 354° North 428 493 34,000  Level FlightAware ADS-B
Thu 06:56:36 AM 57.3530 35.0410 354° North 428 493 34,000  Level FlightAware ADS-B
Thu 06:57:26 AM 57.4480 35.0230 354° North 427 491 34,000  Level FlightAware ADS-B
Thu 06:58:11 AM 57.5390 35.0060 354° North 429 494 34,000  Level FlightAware ADS-B
Thu 06:58:47 AM 57.6090 34.9900 353° North 427 491 34,000  Level FlightAware ADS-B
Thu 06:59:26 AM 57.6850 34.9530 345° North 425 489 34,000  Level FlightAware ADS-B
Thu 07:00:02 AM 57.7480 34.9040 337° Northwest 422 486 34,000  Level FlightAware ADS-B
Thu 07:00:52 AM 57.8310 34.8100 329° Northwest 420 483 34,000  Level FlightAware ADS-B
Thu 07:01:26 AM 57.8850 34.7350 324° Northwest 420 483 34,000  Level FlightAware ADS-B
Thu 07:02:14 AM 57.9600 34.6320 324° Northwest 421 484 34,000  Level FlightAware ADS-B
Thu 07:02:54 AM 58.0230 34.5440 324° Northwest 421 484 34,000  Level FlightAware ADS-B
Thu 07:03:34 AM 58.0850 34.4570 323° Northwest 421 484 34,000  Level FlightAware ADS-B
Thu 07:04:14 AM 58.1470 34.3690 323° Northwest 423 487 34,000  Level FlightAware ADS-B
Thu 07:04:44 AM 58.1900 34.3060 322° Northwest 425 489 34,000  Level FlightAware ADS-B
Thu 07:05:29 AM 58.2620 34.1950 321° Northwest 426 490 34,000  Level FlightAware ADS-B
Thu 07:06:09 AM 58.3230 34.1010 321° Northwest 426 490 34,000  Level FlightAware ADS-B
Thu 07:06:49 AM 58.3720 34.0250 321° Northwest 426 490 34,000  Level FlightAware ADS-B
Thu 07:07:30 AM 58.4240 33.9460 322° Northwest 425 489 34,000  Level FlightAware ADS-B
Thu 07:08:17 AM 58.4870 33.8480 321° Northwest 425 489 34,000  Level FlightAware ADS-B
Thu 07:08:57 AM 58.5550 33.7440 321° Northwest 425 489 34,000  Level FlightAware ADS-B
Thu 07:09:44 AM 58.6190 33.6440 321° Northwest 426 490 34,000  Level FlightAware ADS-B
Thu 07:10:17 AM 58.6690 33.5640 320° Northwest 426 490 34,000  Level FlightAware ADS-B
Thu 07:12:28 AM 58.8570 33.2260 317° Northwest 426 490 34,000  Level FlightAware ADS-B
Thu 07:13:07 AM 58.9170 33.1100 315° West 425 489 34,000  Level FlightAware ADS-B
Thu 07:13:48 AM 58.9690 33.0070 314° West 425 489 34,000  Level FlightAware ADS-B
Thu 07:14:48 AM 59.0620 32.8270 315° West 427 491 34,000 62 Level FlightAware ADS-B
Thu 07:15:25 AM 59.1130 32.7250 314° West 425 489 34,100 532 Climbing FlightAware ADS-B
Thu 07:16:07 AM 59.1670 32.6180 315° West 421 484 34,700 684 Climbing FlightAware ADS-B
Thu 07:16:44 AM 59.2210 32.5100 314° West 424 488 35,000 506 Climbing FlightAware ADS-B
Thu 07:17:30 AM 59.2880 32.3760 314° West 428 493 35,400 607 Climbing FlightAware ADS-B
Thu 07:18:13 AM 59.3590 32.2330 314° West 429 494 35,900 439 Climbing FlightAware ADS-B
Thu 07:18:52 AM 59.4120 32.1210 313° West 425 489 36,000 71 Climbing FlightAware ADS-B
Thu 07:19:37 AM 59.4600 31.9810 304° West 425 489 36,000  Level FlightAware ADS-B
Thu 07:21:03 AM 59.5270 31.7080 296° West 426 490 36,000  Level FlightAware ADS-B
Thu 07:22:35 AM 59.5910 31.4320 295° West 426 490 36,000  Level FlightAware ADS-B
Thu 07:24:24 AM 59.6780 30.9920 292° West 433 498 36,000  Level FlightAware ADS-B
Thu 07:24:49 AM 59.6910 30.8850 284° West 436 502 36,000  Level FlightAware ADS-B
Thu 07:25:22 AM 59.6860 30.7190 267° West 437 503 36,000  Level FlightAware ADS-B
Thu 07:26:07 AM 59.6810 30.5430 267° West 439 505 36,000  Level FlightAware ADS-B
Thu 07:26:47 AM 59.6760 30.3790 267° West 441 507 36,000  Level FlightAware ADS-B
Thu 07:27:22 AM 59.6710 30.2400 266° West 443 510 36,000  Level FlightAware ADS-B
Thu 07:28:07 AM 59.6650 30.0550 266° West 445 512 36,000  Level FlightAware ADS-B
Thu 07:28:47 AM 59.6590 29.8990 266° West 445 512 36,000  Level FlightAware ADS-B
Thu 07:29:29 AM 59.6530 29.7340 266° West 444 511 36,000  Level FlightAware ADS-B
Thu 07:30:12 AM 59.6460 29.5520 266° West 443 510 36,000  Level FlightAware ADS-B
Thu 07:30:52 AM 59.6400 29.3900 266° West 444 511 36,000  Level FlightAware ADS-B
Thu 07:31:32 AM 59.6340 29.2450 265° West 444 511 36,000  Level FlightAware ADS-B
Thu 07:32:13 AM 59.6260 29.0630 265° West 438 504 36,000  Level FlightAware ADS-B
Thu 07:32:49 AM 59.6210 28.9290 266° West 433 498 36,000  Level FlightAware ADS-B
Thu 07:33:33 AM 59.6230 28.7590 271° West 425 489 36,000  Level FlightAware ADS-B
Thu 07:34:13 AM 59.6380 28.6030 281° West 424 488 36,000  Level FlightAware ADS-B
Thu 07:34:58 AM 59.6630 28.4300 286° West 424 488 36,000  Level FlightAware ADS-B
Thu 07:35:38 AM 59.6830 28.2930 286° West 424 488 36,000  Level FlightAware ADS-B
Thu 07:36:18 AM 59.7050 28.1370 286° West 424 488 36,000  Level FlightAware ADS-B
Thu 07:37:03 AM 59.7290 27.9670 286° West 425 489 36,000  Level FlightAware ADS-B
Thu 07:37:44 AM 59.7500 27.8170 286° West 427 491 36,000  Level FlightAware ADS-B
Thu 07:38:29 AM 59.7740 27.6450 286° West 431 496 36,000  Level FlightAware ADS-B
Thu 07:39:08 AM 59.7950 27.4940 286° West 433 498 36,000  Level FlightAware ADS-B
Thu 07:39:49 AM 59.8160 27.3390 285° West 433 498 36,000  Level FlightAware ADS-B
Thu 07:40:57 AM 59.8400 27.1560 285° West 434 499 36,000  Level FlightAware ADS-B
Thu 07:42:41 AM 59.8960 26.7360 285° West 432 497 36,000  Level FlightAware ADS-B
Thu 07:43:31 AM 59.9220 26.5370 285° West 433 498 36,000  Level FlightAware ADS-B
Thu 07:44:12 AM 59.9520 26.3260 286° West 429 494 36,000  Level FlightAware ADS-B
Thu 07:44:56 AM 59.9880 26.1710 295° West 430 495 36,000  Level FlightAware ADS-B
Thu 07:45:36 AM 60.0320 26.0350 303° West 430 495 36,000  Level FlightAware ADS-B
Thu 07:46:16 AM 60.0680 25.8960 297° West 432 497 36,000  Level FlightAware ADS-B
Thu 07:46:52 AM 60.1020 25.7670 298° West 431 496 36,000  Level FlightAware ADS-B
Thu 07:47:37 AM 60.1420 25.6160 298° West 429 494 36,000  Level FlightAware ADS-B
Thu 07:48:12 AM 60.1750 25.4900 298° West 428 493 36,000  Level FlightAware ADS-B
Thu 07:48:52 AM 60.2130 25.3480 298° West 427 491 36,000  Level FlightAware ADS-B
Thu 07:49:40 AM 60.2570 25.1780 298° West 427 491 36,000  Level FlightAware ADS-B
Thu 07:50:26 AM 60.2980 25.0190 298° West 428 493 36,000  Level FlightAware ADS-B
Thu 07:51:02 AM 60.3310 24.8900 297° West 429 494 36,000  Level FlightAware ADS-B
Thu 07:51:41 AM 60.3660 24.7540 298° West 430 495 36,000  Level FlightAware ADS-B
Thu 07:52:24 AM 60.4060 24.5970 297° West 428 493 36,000  Level FlightAware ADS-B
Thu 07:53:04 AM 60.4420 24.4540 297° West 428 493 36,000  Level FlightAware ADS-B
Thu 07:53:42 AM 60.4760 24.3180 297° West 429 494 36,000  Level FlightAware ADS-B
Thu 07:54:22 AM 60.5110 24.1790 297° West 429 494 36,000  Level FlightAware ADS-B
Thu 07:55:02 AM 60.5460 24.0360 297° West 429 494 36,000  Level FlightAware ADS-B
Thu 07:55:38 AM 60.5780 23.9050 296° West 428 493 36,000  Level FlightAware ADS-B
Thu 07:56:22 AM 60.6160 23.7480 296° West 429 494 36,000  Level FlightAware ADS-B
Thu 07:57:03 AM 60.6520 23.6000 296° West 428 493 36,000  Level FlightAware ADS-B
Thu 07:57:44 AM 60.6870 23.4550 296° West 422 486 36,000  Level FlightAware ADS-B
Thu 07:58:28 AM 60.7260 23.2940 296° West 421 484 36,000  Level FlightAware ADS-B
Thu 07:59:08 AM 60.7580 23.1580 296° West 422 486 36,000  Level FlightAware ADS-B
Thu 07:59:48 AM 60.7940 23.0060 296° West 424 488 36,000  Level FlightAware ADS-B
Thu 08:02:00 AM 60.8965 22.5395 294° West  Level Estimated
Thu 08:03:00 AM 60.9426 22.3265 294° West  Level Estimated
Thu 08:03:09 AM 60.9520 22.3260 294° West 425 489 36,000  Level FlightAware ADS-B
Thu 08:03:55 AM 61.0150 22.1270 303° West 433 498 36,000  Level FlightAware ADS-B
Thu 08:04:55 AM 61.1020 21.9530 316° Northwest 434 499 36,000  Level FlightAware ADS-B
Thu 08:05:35 AM 61.1600 21.8370 316° Northwest 427 491 36,000  Level FlightAware ADS-B
Thu 08:06:15 AM 61.2190 21.7200 316° Northwest 431 496 36,000  Level FlightAware ADS-B
Thu 08:06:55 AM 61.2750 21.6050 315° West 430 495 36,000  Level FlightAware ADS-B
Thu 08:07:40 AM 61.3380 21.4760 316° Northwest 433 498 36,000  Level FlightAware ADS-B
Thu 08:08:20 AM 61.3940 21.3600 315° West 434 499 36,000  Level FlightAware ADS-B
Thu 08:09:06 AM 61.4590 21.2250 315° West 436 502 36,000  Level FlightAware ADS-B
Thu 08:09:40 AM 61.5080 21.1230 315° West 434 499 36,000  Level FlightAware ADS-B
Thu 08:10:20 AM 61.5670 21.0000 315° West 437 503 36,000  Level FlightAware ADS-B
Thu 08:11:00 AM 61.6240 20.8800 315° West 439 505 36,000  Level FlightAware ADS-B
Thu 08:11:38 AM 61.6610 20.8020 315° West 441 507 36,000  Level FlightAware ADS-B
Thu 08:12:20 AM 61.7390 20.6340 314° West 439 505 36,000  Level FlightAware ADS-B
Thu 08:13:06 AM 61.8040 20.4950 315° West 443 510 36,000  Level FlightAware ADS-B
Thu 08:13:46 AM 61.8630 20.3670 314° West 443 510 36,000  Level FlightAware ADS-B
Thu 08:14:26 AM 61.9180 20.2480 315° West 440 506 36,000  Level FlightAware ADS-B
Thu 08:15:06 AM 61.9780 20.1170 314° West 442 509 36,000  Level FlightAware ADS-B
Thu 08:15:51 AM 62.0420 19.9760 314° West 442 509 36,000  Level FlightAware ADS-B
Thu 08:16:31 AM 62.1000 19.8490 314° West 442 509 36,000  Level FlightAware ADS-B
Thu 08:17:11 AM 62.1570 19.7210 314° West 445 512 36,000  Level FlightAware ADS-B
Thu 08:17:52 AM 62.2150 19.5900 314° West 447 514 36,000  Level FlightAware ADS-B
Thu 08:18:36 AM 62.2790 19.4470 314° West 447 514 36,000  Level FlightAware ADS-B
Thu 08:19:21 AM 62.3430 19.3030 314° West 449 517 36,000  Level FlightAware ADS-B
Thu 08:20:44 AM 62.4420 19.0770 313° West 447 514 36,000  Level FlightAware ADS-B
Thu 08:21:43 AM 62.5430 18.8410 313° West 448 516 36,000  Level FlightAware ADS-B
Thu 08:22:24 AM 62.6000 18.7080 313° West 451 519 36,000  Level FlightAware ADS-B
Thu 08:23:08 AM 62.6640 18.5590 313° West 453 521 36,000  Level FlightAware ADS-B
Thu 08:24:29 AM 62.7610 18.3300 313° West 454 522 36,000  Level FlightAware ADS-B
Thu 08:25:26 AM 62.8450 18.1300 313° West 454 522 36,000  Level FlightAware ADS-B
Thu 08:26:04 AM 62.9120 17.9680 312° West 455 524 36,000  Level FlightAware ADS-B
Thu 08:26:51 AM 62.9810 17.8010 312° West 455 524 36,000  Level FlightAware ADS-B
Thu 08:27:23 AM 63.0260 17.6910 312° West 453 521 36,000  Level FlightAware ADS-B
Thu 08:28:07 AM 63.0870 17.5410 312° West 454 522 36,000  Level FlightAware ADS-B
Thu 08:28:43 AM 63.1370 17.4180 312° West 455 524 36,000  Level FlightAware ADS-B
Thu 08:29:23 AM 63.1930 17.2770 311° West 453 521 36,000  Level FlightAware ADS-B
Thu 08:30:11 AM 63.2600 17.1110 312° West 452 520 36,000  Level FlightAware ADS-B
Thu 08:30:55 AM 63.3200 16.9580 311° West 454 522 36,000  Level FlightAware ADS-B
Thu 08:31:33 AM 63.3720 16.8260 311° West 454 522 36,000  Level FlightAware ADS-B
Thu 08:32:17 AM 63.4330 16.6710 311° West 452 520 36,000  Level FlightAware ADS-B
Thu 08:32:53 AM 63.4830 16.5430 311° West 451 519 36,000  Level FlightAware ADS-B
Thu 08:33:33 AM 63.5380 16.4020 311° West 450 518 36,000  Level FlightAware ADS-B
Thu 08:34:17 AM 63.5960 16.2510 311° West 448 516 36,000  Level FlightAware ADS-B
Thu 08:35:01 AM 63.6560 16.0930 311° West 447 514 36,000  Level FlightAware ADS-B
Thu 08:35:41 AM 63.7090 15.9520 310° West 446 513 36,000  Level FlightAware ADS-B
Thu 08:36:22 AM 63.7630 15.8090 311° West 447 514 36,000  Level FlightAware ADS-B
Thu 08:37:06 AM 63.8220 15.6520 310° West 449 517 36,000  Level FlightAware ADS-B
Thu 08:37:41 AM 63.8690 15.5230 310° West 450 518 36,000  Level FlightAware ADS-B
Thu 08:38:21 AM 63.9230 15.3790 311° West 450 518 36,000  Level FlightAware ADS-B
Thu 08:39:04 AM 63.9790 15.2260 310° West 450 518 36,000  Level FlightAware ADS-B
Thu 08:39:41 AM 64.0300 15.0860 310° West 451 519 36,000  Level FlightAware ADS-B
Thu 08:41:29 AM 64.1540 14.7410 310° West 452 520 36,000  Level FlightAware ADS-B
Thu 08:42:15 AM 64.2320 14.5210 309° West 451 519 36,000  Level FlightAware ADS-B
Thu 08:42:55 AM 64.2850 14.3710 309° West 452 520 36,000  Level FlightAware ADS-B
Thu 08:44:15 AM 64.3720 14.1220 309° West 452 520 36,000  Level FlightAware ADS-B
Thu 08:45:00 AM 64.4380 13.9340 309° West 451 519 36,000  Level FlightAware ADS-B
Thu 08:45:45 AM 64.5060 13.7340 308° West 441 507 36,000  Level FlightAware ADS-B
Thu 08:46:25 AM 64.5560 13.5890 309° West 441 507 36,000  Level FlightAware ADS-B
Thu 08:47:01 AM 64.6020 13.4510 308° West 440 506 36,000  Level FlightAware ADS-B
Thu 08:47:47 AM 64.6600 13.2810 309° West 440 506 36,000  Level FlightAware ADS-B
Thu 08:48:31 AM 64.7150 13.1160 308° West 440 506 36,000  Level FlightAware ADS-B
Thu 08:49:13 AM 64.7660 12.9590 307° West 442 509 36,000  Level FlightAware ADS-B
Thu 08:49:57 AM 64.8220 12.7910 308° West 444 511 36,000  Level FlightAware ADS-B
Thu 08:50:33 AM 64.8660 12.6560 308° West 442 509 36,000  Level FlightAware ADS-B
Thu 08:51:17 AM 64.9210 12.4870 308° West 441 507 36,000  Level FlightAware ADS-B
Thu 08:52:01 AM 64.9740 12.3200 307° West 442 509 36,000  Level FlightAware ADS-B
Thu 08:52:45 AM 65.0280 12.1510 307° West 441 507 36,000  Level FlightAware ADS-B
Thu 08:53:25 AM 65.0770 11.9970 307° West 442 509 36,000  Level FlightAware ADS-B
Thu 08:54:05 AM 65.1260 11.8430 307° West 443 510 36,000  Level FlightAware ADS-B
Thu 08:54:49 AM 65.1800 11.6710 307° West 444 511 36,000  Level FlightAware ADS-B
Thu 08:55:33 AM 65.2330 11.4980 306° West 443 510 36,000  Level FlightAware ADS-B
Thu 08:56:13 AM 65.2820 11.3410 307° West 440 506 36,000  Level FlightAware ADS-B
Thu 08:56:57 AM 65.3340 11.1710 306° West 440 506 36,000  Level FlightAware ADS-B
Thu 08:57:37 AM 65.3820 11.0140 306° West 438 504 36,000  Level FlightAware ADS-B
Thu 08:58:17 AM 65.4290 10.8570 306° West 436 502 36,000  Level FlightAware ADS-B
Thu 08:58:53 AM 65.4710 10.7170 306° West 434 499 36,000  Level FlightAware ADS-B
Thu 08:59:39 AM 65.5230 10.5430 306° West 433 498 36,000  Level FlightAware ADS-B
Thu 09:01:43 AM 65.6510 10.1030 305° West 434 499 36,000  Level FlightAware ADS-B
Thu 09:02:27 AM 65.7190 9.8680 305° West 436 502 36,000  Level FlightAware ADS-B
Thu 09:03:09 AM 65.7670 9.7000 305° West 437 503 36,000  Level FlightAware ADS-B
Thu 09:03:31 AM 65.7930 9.6110 305° West 437 503 36,000  Level FlightAware ADS-B
Thu 09:05:03 AM 65.8800 9.2930 304° West 437 503 36,000  Level FlightAware ADS-B
Thu 09:05:51 AM 65.9270 9.1260 305° West 437 503 36,000  Level FlightAware ADS-B
Thu 09:06:27 AM 65.9610 9.0000 304° West 437 503 36,000  Level FlightAware ADS-B
Thu 09:07:39 AM 66.0300 8.7480 304° West 437 503 36,000  Level FlightAware ADS-B
Thu 09:08:15 AM 66.0650 8.6210 304° West 437 503 36,000  Level FlightAware ADS-B
Thu 09:09:03 AM 66.1110 8.4530 304° West 437 503 36,000  Level FlightAware ADS-B
Thu 09:09:39 AM 66.1460 8.3260 304° West 437 503 36,000  Level FlightAware ADS-B
Thu 09:10:27 AM 66.1920 8.1560 304° West 437 503 36,000  Level FlightAware ADS-B
Thu 09:12:05 AM 66.2860 7.8100 304° West 437 503 36,000  Level FlightAware ADS-B
Thu 09:12:41 AM 66.3200 7.6820 304° West 437 503 36,000 -10 Level FlightAware ADS-B
Thu 09:15:00 AM 66.3631 7.0367 280° West  Level Estimated
Thu 09:16:00 AM 66.3809 6.7574 279° West  Level Estimated
Thu 09:17:00 AM 66.3982 6.4778 279° West  Level Estimated
Thu 09:18:00 AM 66.4150 6.1978 279° West  Level Estimated
Thu 09:19:00 AM 66.4313 5.9174 278° West  Level Estimated
Thu 09:20:00 AM 66.4471 5.6367 278° West  Level Estimated
Thu 09:21:00 AM 66.4623 5.3556 278° West  Level Estimated
Thu 09:22:00 AM 66.4771 5.0741 278° West  Level Estimated
Thu 09:23:00 AM 66.4914 4.7924 277° West  Level Estimated
Thu 09:24:00 AM 66.5051 4.5103 277° West  Level Estimated
Thu 09:25:00 AM 66.5184 4.2279 277° West  Level Estimated
Thu 09:26:00 AM 66.5311 3.9453 277° West  Level Estimated
Thu 09:27:00 AM 66.5434 3.6623 276° West  Level Estimated
Thu 09:28:00 AM 66.5551 3.3791 276° West  Level Estimated
Thu 09:29:00 AM 66.5663 3.0956 276° West  Level Estimated
Thu 09:30:00 AM 66.5770 2.8119 276° West  Level Estimated
Thu 09:31:00 AM 66.5872 2.5279 275° West  Level Estimated
Thu 09:32:00 AM 66.5968 2.2437 275° West  Level Estimated
Thu 09:33:00 AM 66.6060 1.9592 275° West  Level Estimated
Thu 09:34:00 AM 66.6146 1.6746 275° West  Level Estimated
Thu 09:35:00 AM 66.6228 1.3898 274° West  Level Estimated
Thu 09:36:00 AM 66.6304 1.1048 274° West  Level Estimated
Thu 09:37:00 AM 66.6375 0.8196 274° West  Level Estimated
Thu 09:38:00 AM 66.6441 0.5343 273° West  Level Estimated
Thu 09:39:00 AM 66.6501 0.2488 273° West  Level Estimated
Thu 09:40:00 AM 66.6557 -0.0368 273° West  Level Estimated
Thu 09:41:00 AM 66.6607 -0.3225 273° West  Level Estimated
Thu 09:42:00 AM 66.6652 -0.6084 272° West  Level Estimated
Thu 09:43:00 AM 66.6692 -0.8943 272° West  Level Estimated
Thu 09:44:00 AM 66.6726 -1.1803 272° West  Level Estimated
Thu 09:45:00 AM 66.6756 -1.4664 272° West  Level Estimated
Thu 09:46:00 AM 66.6780 -1.7526 271° West  Level Estimated
Thu 09:47:00 AM 66.6799 -2.0388 271° West  Level Estimated
Thu 09:48:00 AM 66.6813 -2.3250 271° West  Level Estimated
Thu 09:49:00 AM 66.6822 -2.6113 271° West  Level Estimated
Thu 09:50:00 AM 66.6825 -2.8976 270° West  Level Estimated
Thu 09:51:00 AM 66.6824 -3.1839 270° West  Level Estimated
Thu 09:52:00 AM 66.6817 -3.4702 270° West  Level Estimated
Thu 09:53:00 AM 66.6805 -3.7564 270° West  Level Estimated
Thu 09:54:00 AM 66.6787 -4.0427 269° West  Level Estimated
Thu 09:55:00 AM 66.6765 -4.3288 269° West  Level Estimated
Thu 09:56:00 AM 66.6737 -4.6150 269° West  Level Estimated
Thu 09:57:00 AM 66.6704 -4.9010 268° West  Level Estimated
Thu 09:58:00 AM 66.6666 -5.1870 268° West  Level Estimated
Thu 09:59:00 AM 66.6623 -5.4728 268° West  Level Estimated
Thu 10:00:00 AM 66.6574 -5.7586 268° West  Level Estimated
Thu 10:01:00 AM 66.6521 -6.0443 267° West  Level Estimated
Thu 10:02:00 AM 66.6462 -6.3298 267° West  Level Estimated
Thu 10:03:00 AM 66.6398 -6.6152 267° West  Level Estimated
Thu 10:04:00 AM 66.6329 -6.9004 267° West  Level Estimated
Thu 10:05:00 AM 66.6254 -7.1854 266° West  Level Estimated
Thu 10:06:00 AM 66.6175 -7.4703 266° West  Level Estimated
Thu 10:07:00 AM 66.6090 -7.7550 266° West  Level Estimated
Thu 10:08:00 AM 66.6000 -8.0395 266° West  Level Estimated
Thu 10:09:00 AM 66.5905 -8.3238 265° West  Level Estimated
Thu 10:10:00 AM 66.5805 -8.6078 265° West  Level Estimated
Thu 10:11:00 AM 66.5700 -8.8917 265° West  Level Estimated
Thu 10:12:00 AM 66.5590 -9.1752 265° West  Level Estimated
Thu 10:13:00 AM 66.5474 -9.4586 264° West  Level Estimated
Thu 10:14:00 AM 66.5353 -9.7416 264° West  Level Estimated
Thu 10:15:00 AM 66.5228 -10.0244 264° West  Level Estimated
Thu 10:16:00 AM 66.5097 -10.3069 264° West  Level Estimated
Thu 10:17:00 AM 66.4961 -10.5890 263° West  Level Estimated
Thu 10:18:00 AM 66.4820 -10.8709 263° West  Level Estimated
Thu 10:19:00 AM 66.4674 -11.1524 263° West  Level Estimated
Thu 10:20:00 AM 66.4523 -11.4336 262° West  Level Estimated
Thu 10:21:00 AM 66.4367 -11.7145 262° West  Level Estimated
Thu 10:22:00 AM 66.4206 -11.9950 262° West  Level Estimated
Thu 10:23:00 AM 66.4039 -12.2751 262° West  Level Estimated
Thu 10:24:00 AM 66.3868 -12.5549 261° West  Level Estimated
Thu 10:25:00 AM 66.3692 -12.8343 261° West  Level Estimated
Thu 10:26:00 AM 66.3511 -13.1132 261° West  Level Estimated
Thu 10:27:00 AM 66.3325 -13.3918 261° West  Level Estimated
Thu 10:28:00 AM 66.3133 -13.6699 260° West  Level Estimated
Thu 10:29:00 AM 66.2937 -13.9476 260° West  Level Estimated
Thu 10:30:00 AM 66.2736 -14.2249 260° West  Level Estimated
Thu 10:31:00 AM 66.2530 -14.5018 260° West  Level Estimated
Thu 10:32:00 AM 66.2319 -14.7781 259° West  Level Estimated
Thu 10:33:00 AM 66.2104 -15.0540 259° West  Level Estimated
Thu 10:34:00 AM 66.1883 -15.3295 259° West  Level Estimated
Thu 10:35:00 AM 66.1657 -15.6044 259° West  Level Estimated
Thu 10:36:00 AM 66.1427 -15.8789 258° West  Level Estimated
Thu 10:37:00 AM 66.1191 -16.1528 258° West  Level Estimated
Thu 10:38:00 AM 66.0951 -16.4262 258° West  Level Estimated
Thu 10:39:00 AM 66.0706 -16.6991 258° West  Level Estimated
Thu 10:40:00 AM 66.0456 -16.9715 257° West  Level Estimated
Thu 10:41:00 AM 66.0202 -17.2434 257° West  Level Estimated
Thu 10:42:00 AM 65.9942 -17.5147 257° West  Level Estimated
Thu 10:43:00 AM 65.9678 -17.7854 257° West  Level Estimated
Thu 10:44:00 AM 65.9409 -18.0556 256° West  Level Estimated
Thu 10:45:00 AM 65.9136 -18.3252 256° West  Level Estimated
Thu 10:46:00 AM 65.8857 -18.5942 256° West  Level Estimated
Thu 10:47:00 AM 65.8574 -18.8626 256° West  Level Estimated
Thu 10:48:00 AM 65.8287 -19.1304 255° West  Level Estimated
Thu 10:49:00 AM 65.7994 -19.3977 255° West  Level Estimated
Thu 10:50:00 AM 65.7697 -19.6643 255° West  Level Estimated
Thu 10:51:00 AM 65.7396 -19.9303 255° West  Level Estimated
Thu 10:52:00 AM 65.7089 -20.1957 254° West  Level Estimated
Thu 10:53:00 AM 65.6778 -20.4604 254° West  Level Estimated
Thu 10:54:00 AM 65.6463 -20.7245 254° West  Level Estimated
Thu 10:55:00 AM 65.6143 -20.9880 254° West  Level Estimated
Thu 10:56:00 AM 65.5818 -21.2508 253° West  Level Estimated
Thu 10:57:00 AM 65.5489 -21.5129 253° West  Level Estimated
Thu 10:58:00 AM 65.5156 -21.7744 253° West  Level Estimated
Thu 10:59:00 AM 65.4818 -22.0352 253° West  Level Estimated
Thu 11:00:00 AM 65.4475 -22.2953 253° West  Level Estimated
Thu 11:01:00 AM 65.4128 -22.5548 252° West  Level Estimated
Thu 11:02:00 AM 65.3776 -22.8135 252° West  Level Estimated
Thu 11:03:00 AM 65.3420 -23.0716 252° West  Level Estimated
Thu 11:04:00 AM 65.3060 -23.3289 252° West  Level Estimated
Thu 11:05:00 AM 65.2696 -23.5856 251° West  Level Estimated
Thu 11:06:00 AM 65.2327 -23.8415 251° West  Level Estimated
Thu 11:07:00 AM 65.1953 -24.0968 251° West  Level Estimated
Thu 11:08:00 AM 65.1576 -24.3512 251° West  Level Estimated
Thu 11:09:00 AM 65.1194 -24.6050 250° West  Level Estimated
Thu 11:10:00 AM 65.0807 -24.8581 250° West  Level Estimated
Thu 11:11:00 AM 65.0417 -25.1104 250° West  Level Estimated
Thu 11:12:00 AM 65.0022 -25.3619 250° West  Level Estimated
Thu 11:13:00 AM 64.9623 -25.6127 250° West  Level Estimated
Thu 11:14:00 AM 64.9220 -25.8628 249° West  Level Estimated
Thu 11:15:00 AM 64.8813 -26.1121 249° West  Level Estimated
Thu 11:16:00 AM 64.8401 -26.3606 249° West  Level Estimated
Thu 11:17:00 AM 64.7986 -26.6084 249° West  Level Estimated
Thu 11:18:00 AM 64.7566 -26.8554 248° West  Level Estimated
Thu 11:19:00 AM 64.7142 -27.1017 248° West  Level Estimated
Thu 11:20:00 AM 64.6714 -27.3472 248° West  Level Estimated
Thu 11:21:00 AM 64.6283 -27.5919 248° West  Level Estimated
Thu 11:22:00 AM 64.5846 -27.8358 247° West  Level Estimated
Thu 11:23:00 AM 64.5406 -28.0789 247° West  Level Estimated
Thu 11:24:00 AM 64.4962 -28.3213 247° West  Level Estimated
Thu 11:25:00 AM 64.4514 -28.5628 247° West  Level Estimated
Thu 11:26:00 AM 64.4063 -28.8036 247° West  Level Estimated
Thu 11:27:00 AM 64.3607 -29.0436 246° West  Level Estimated
Thu 11:28:00 AM 64.3147 -29.2827 246° West  Level Estimated
Thu 11:29:00 AM 64.2683 -29.5211 246° West  Level Estimated
Thu 11:30:00 AM 64.2216 -29.7587 246° West  Level Estimated
Thu 11:31:00 AM 64.1745 -29.9954 246° West  Level Estimated
Thu 11:32:00 AM 64.1270 -30.2314 245° Southwest  Level Estimated
Thu 11:33:00 AM 64.0790 -30.4665 245° Southwest  Level Estimated
Thu 11:34:00 AM 64.0308 -30.7009 245° Southwest  Level Estimated
Thu 11:35:00 AM 63.9821 -30.9344 245° Southwest  Level Estimated
Thu 11:36:00 AM 63.9331 -31.1671 244° Southwest  Level Estimated
Thu 11:37:00 AM 63.8800 -31.4165 244° Southwest  Level Estimated
Thu 11:38:00 AM 63.8264 -31.6649 244° Southwest  Level Estimated
Thu 11:39:00 AM 63.7724 -31.9123 244° Southwest  Level Estimated
Thu 11:40:00 AM 63.7180 -32.1588 244° Southwest  Level Estimated
Thu 11:41:00 AM 63.6632 -32.4044 243° Southwest  Level Estimated
Thu 11:42:00 AM 63.6079 -32.6489 243° Southwest  Level Estimated
Thu 11:43:00 AM 63.5523 -32.8926 243° Southwest  Level Estimated
Thu 11:44:00 AM 63.4962 -33.1353 243° Southwest  Level Estimated
Thu 11:45:00 AM 63.4397 -33.3770 242° Southwest  Level Estimated
Thu 11:46:00 AM 63.3829 -33.6178 242° Southwest  Level Estimated
Thu 11:47:00 AM 63.3256 -33.8576 242° Southwest  Level Estimated
Thu 11:48:00 AM 63.2679 -34.0965 242° Southwest  Level Estimated
Thu 11:49:00 AM 63.2098 -34.3344 242° Southwest  Level Estimated
Thu 11:50:00 AM 63.1513 -34.5714 241° Southwest  Level Estimated
Thu 11:51:00 AM 63.0924 -34.8074 241° Southwest  Level Estimated
Thu 11:52:00 AM 63.0331 -35.0424 241° Southwest  Level Estimated
Thu 11:53:00 AM 62.9735 -35.2765 241° Southwest  Level Estimated
Thu 11:54:00 AM 62.9134 -35.5097 241° Southwest  Level Estimated
Thu 11:55:00 AM 62.8530 -35.7418 240° Southwest  Level Estimated
Thu 11:56:00 AM 62.7922 -35.9731 240° Southwest  Level Estimated
Thu 11:57:00 AM 62.7310 -36.2033 240° Southwest  Level Estimated
Thu 11:58:00 AM 62.6695 -36.4326 240° Southwest  Level Estimated
Thu 11:59:00 AM 62.6075 -36.6610 240° Southwest  Level Estimated
Thu 12:00:00 PM 62.5452 -36.8884 239° Southwest  Level Estimated
Thu 12:01:00 PM 62.4826 -37.1148 239° Southwest  Level Estimated
Thu 12:02:00 PM 62.4195 -37.3403 239° Southwest  Level Estimated
Thu 12:03:00 PM 62.3561 -37.5649 239° Southwest  Level Estimated
Thu 12:04:00 PM 62.2924 -37.7885 239° Southwest  Level Estimated
Thu 12:05:00 PM 62.2283 -38.0111 238° Southwest  Level Estimated
Thu 12:06:00 PM 62.1638 -38.2328 238° Southwest  Level Estimated
Thu 12:07:00 PM 62.0990 -38.4536 238° Southwest  Level Estimated
Thu 12:08:00 PM 62.0338 -38.6734 238° Southwest  Level Estimated
Thu 12:09:00 PM 61.9683 -38.8923 238° Southwest  Level Estimated
Thu 12:10:00 PM 61.9024 -39.1102 237° Southwest  Level Estimated
Thu 12:11:00 PM 61.8362 -39.3272 237° Southwest  Level Estimated
Thu 12:12:00 PM 61.7696 -39.5432 237° Southwest  Level Estimated
Thu 12:13:00 PM 61.7028 -39.7584 237° Southwest  Level Estimated
Thu 12:14:00 PM 61.6355 -39.9725 237° Southwest  Level Estimated
Thu 12:15:00 PM 61.5680 -40.1858 236° Southwest  Level Estimated
Thu 12:16:00 PM 61.5001 -40.3981 236° Southwest  Level Estimated
Thu 12:17:00 PM 61.4319 -40.6095 236° Southwest  Level Estimated
Thu 12:18:00 PM 61.3633 -40.8200 236° Southwest  Level Estimated
Thu 12:19:00 PM 61.2945 -41.0295 236° Southwest  Level Estimated
Thu 12:20:00 PM 61.2253 -41.2382 235° Southwest  Level Estimated
Thu 12:21:00 PM 61.1558 -41.4459 235° Southwest  Level Estimated
Thu 12:22:00 PM 61.0859 -41.6527 235° Southwest  Level Estimated
Thu 12:23:00 PM 61.0158 -41.8586 235° Southwest  Level Estimated
Thu 12:24:00 PM 60.9454 -42.0636 235° Southwest  Level Estimated
Thu 12:25:00 PM 60.8746 -42.2676 235° Southwest  Level Estimated
Thu 12:26:00 PM 60.8035 -42.4708 234° Southwest  Level Estimated
Thu 12:27:00 PM 60.7322 -42.6730 234° Southwest  Level Estimated
Thu 12:28:00 PM 60.6605 -42.8744 234° Southwest  Level Estimated
Thu 12:29:00 PM 60.5885 -43.0749 234° Southwest  Level Estimated
Thu 12:30:00 PM 60.5162 -43.2744 234° Southwest  Level Estimated
Thu 12:31:00 PM 60.4436 -43.4731 234° Southwest  Level Estimated
Thu 12:32:00 PM 60.3708 -43.6709 233° Southwest  Level Estimated
Thu 12:33:00 PM 60.2976 -43.8678 233° Southwest  Level Estimated
Thu 12:33:00 PM 62.3530 -49.0300 233° Southwest 452 520 34,000  Level FlightAware ADS-B
Thu 12:34:00 PM 60.2242 -44.0639 233° Southwest  Level Estimated
Thu 12:34:14 PM 62.2660 -49.2700 232° Southwest 451 519 34,000  Level FlightAware ADS-B
Thu 12:34:56 PM 62.2080 -49.4340 233° Southwest 449 517 34,000  Level FlightAware ADS-B
Thu 12:35:35 PM 62.1580 -49.5720 232° Southwest 448 516 34,000  Level FlightAware ADS-B
Thu 12:37:04 PM 62.0610 -49.8360 232° Southwest 448 516 34,000  Level FlightAware ADS-B
Thu 12:37:42 PM 62.0200 -49.9480 232° Southwest 448 516 34,000  Level FlightAware ADS-B
Thu 12:38:43 PM 61.9540 -50.1290 232° Southwest 448 516 34,000  Level FlightAware ADS-B
Thu 12:39:20 PM 61.9140 -50.2380 232° Southwest 448 516 34,000  Level FlightAware ADS-B
Thu 12:40:00 PM 61.8320 -50.5200 238° Southwest 450 518 34,000  Level FlightAware ADS-B
Thu 12:40:48 PM 61.7820 -50.6720 235° Southwest 450 518 34,000  Level FlightAware ADS-B
Thu 12:41:36 PM 61.7330 -50.8190 235° Southwest 450 518 34,000  Level FlightAware ADS-B
Thu 12:42:25 PM 61.6640 -51.0230 235° Southwest 449 517 34,000  Level FlightAware ADS-B
Thu 12:43:14 PM 61.6130 -51.1700 234° Southwest 449 517 34,000  Level FlightAware ADS-B
Thu 12:43:50 PM 61.5760 -51.2780 234° Southwest 449 517 34,000  Level FlightAware ADS-B
Thu 12:44:36 PM 61.5280 -51.4160 234° Southwest 449 517 34,000  Level FlightAware ADS-B
Thu 12:45:14 PM 61.4890 -51.5300 234° Southwest 449 517 34,000  Level FlightAware ADS-B
Thu 12:46:09 PM 61.3930 -51.8220 236° Southwest 453 521 34,000  Level FlightAware ADS-B
Thu 12:46:45 PM 61.3550 -51.9300 234° Southwest 453 521 34,000  Level FlightAware ADS-B
Thu 12:47:34 PM 61.3040 -52.0770 234° Southwest 453 521 34,000  Level FlightAware ADS-B
Thu 12:48:11 PM 61.2650 -52.1880 234° Southwest 453 521 34,000  Level FlightAware ADS-B
Thu 12:49:00 PM 61.2140 -52.3350 234° Southwest 453 521 34,000  Level FlightAware ADS-B
Thu 12:49:37 PM 61.1750 -52.4450 234° Southwest 453 521 34,000  Level FlightAware ADS-B
Thu 12:50:14 PM 61.1360 -52.5560 234° Southwest 453 521 34,000  Level FlightAware ADS-B
Thu 12:51:02 PM 61.0860 -52.6990 234° Southwest 453 521 34,000  Level FlightAware ADS-B
Thu 12:51:38 PM 61.0480 -52.8060 234° Southwest 453 521 34,000  Level FlightAware ADS-B
Thu 12:52:26 PM 60.9980 -52.9490 234° Southwest 453 521 34,000  Level FlightAware ADS-B
Thu 12:53:04 PM 60.9580 -53.0620 234° Southwest 453 521 34,000  Level FlightAware ADS-B
Thu 12:54:02 PM 60.8970 -53.2340 234° Southwest 453 521 34,000  Level FlightAware ADS-B
Thu 12:55:04 PM 60.8320 -53.4170 234° Southwest 453 521 34,000  Level FlightAware ADS-B
Thu 12:55:40 PM 60.7950 -53.5240 235° Southwest 453 521 34,000  Level FlightAware ADS-B
Thu 12:58:00 PM 60.6203 -53.9825 232° Southwest  Level FlightAware Approximate
Thu 12:59:00 PM 60.5449 -54.1775 232° Southwest  Level FlightAware Approximate
Thu 01:00:00 PM 60.4693 -54.3716 232° Southwest  Level FlightAware Approximate
Thu 01:01:00 PM 60.3934 -54.5648 232° Southwest  Level FlightAware Approximate
Thu 01:02:00 PM 60.3172 -54.7571 231° Southwest  Level FlightAware Approximate
Thu 01:03:00 PM 60.2407 -54.9484 231° Southwest  Level FlightAware Approximate
Thu 01:04:00 PM 60.1640 -55.1389 231° Southwest  Level FlightAware Approximate
Thu 01:05:00 PM 60.0872 -55.3278 231° Southwest  Level FlightAware Approximate
Thu 01:06:00 PM 60.0103 -55.5159 231° Southwest  Level FlightAware Approximate
Thu 01:07:00 PM 59.9330 -55.7030 231° Southwest  Level FlightAware Approximate
Thu 01:08:00 PM 59.8555 -55.8893 230° Southwest  Level FlightAware Approximate
Thu 01:09:00 PM 59.7777 -56.0747 230° Southwest  Level FlightAware Approximate
Thu 01:09:12 PM 59.6167 -56.4167 229° Southwest 460 529 34,000  Level Gander Center
Thu 01:10:00 PM 59.6996 -56.2592 230° Southwest  Level FlightAware Approximate
Thu 01:10:12 PM 59.5167 -56.6167 225° Southwest 460 529 34,000  Level Gander Center
Thu 01:11:00 PM 59.6213 -56.4429 230° Southwest  Level FlightAware Approximate
Thu 01:11:12 PM 59.4500 -56.8000 234° Southwest 460 529 34,000  Level Gander Center
Thu 01:12:00 PM 59.5428 -56.6257 230° Southwest  Level FlightAware Approximate
Thu 01:12:12 PM 59.3667 -57.0000 231° Southwest 460 529 34,000  Level Gander Center
Thu 01:13:00 PM 59.4639 -56.8077 230° Southwest  Level FlightAware Approximate
Thu 01:13:12 PM 59.2667 -57.2000 226° Southwest 460 529 34,000  Level Gander Center
Thu 01:14:00 PM 59.3849 -56.9888 229° Southwest  Level FlightAware Approximate
Thu 01:14:12 PM 59.2000 -57.3833 235° Southwest 460 529 34,000  Level Gander Center
Thu 01:15:12 PM 59.1000 -57.5500 221° Southwest 460 529 34,000  Level Gander Center
Thu 01:16:12 PM 59.0167 -57.7500 231° Southwest 460 529 34,000  Level Gander Center
Thu 01:17:12 PM 58.9500 -57.9167 232° Southwest 460 529 34,000  Level Gander Center
Thu 01:18:12 PM 58.8667 -58.1167 231° Southwest 460 529 34,000  Level Gander Center
Thu 01:19:12 PM 58.7667 -58.3333 228° Southwest 460 529 34,000  Level Gander Center
Thu 01:20:12 PM 58.6833 -58.5000 226° Southwest 460 529 34,000  Level Gander Center
Thu 01:21:12 PM 58.6167 -58.6833 235° Southwest 470 541 34,000  Level Gander Center
Thu 01:22:12 PM 58.5167 -58.8833 226° Southwest 470 541 34,000  Level Gander Center
Thu 01:23:12 PM 58.4333 -59.0500 226° Southwest 470 541 34,000  Level Gander Center
Thu 01:24:12 PM 58.3333 -59.2500 226° Southwest 470 541 34,000  Level Gander Center
Thu 01:25:12 PM 58.2500 -59.4167 227° Southwest 460 529 34,000  Level Gander Center
Thu 01:26:12 PM 58.1833 -59.6000 235° Southwest 460 529 34,000  Level Gander Center
Thu 01:27:12 PM 58.0833 -59.8000 227° Southwest 460 529 34,000  Level Gander Center
Thu 01:28:12 PM 57.9833 -59.9667 221° Southwest 460 529 34,000  Level Gander Center
Thu 01:29:12 PM 57.8833 -60.0833 212° Southwest 460 529 34,000  Level Gander Center
Thu 01:30:12 PM 57.7667 -60.2167 211° Southwest 460 529 34,000  Level Gander Center
Thu 01:31:12 PM 57.6667 -60.3500 216° Southwest 460 529 34,000  Level Gander Center
Thu 01:32:12 PM 57.5500 -60.4667 208° Southwest 460 529 34,000  Level Gander Center
Thu 01:33:12 PM 57.4500 -60.6000 216° Southwest 460 529 34,000  Level Gander Center
Thu 01:34:12 PM 57.3333 -60.7333 212° Southwest 470 541 34,000  Level Gander Center
Thu 01:35:12 PM 57.2333 -60.8833 219° Southwest 460 529 34,000  Level Gander Center
Thu 01:36:12 PM 57.1167 -61.0000 209° Southwest 460 529 34,000  Level Gander Center
Thu 01:37:12 PM 57.0000 -61.1333 212° Southwest 460 529 34,000  Level Gander Center
Thu 01:38:12 PM 56.9000 -61.2500 213° Southwest 460 529 34,000  Level Gander Center
Thu 01:39:12 PM 56.8000 -61.3667 213° Southwest 460 529 34,000  Level Gander Center
Thu 01:40:12 PM 56.6833 -61.5333 218° Southwest 460 529 34,000  Level Gander Center
Thu 01:41:12 PM 56.5667 -61.6167 201° Southwest 450 518 34,000  Level Gander Center
Thu 01:42:12 PM 56.4667 -61.7333 213° Southwest 460 529 34,000  Level Gander Center
Thu 01:43:12 PM 56.3500 -61.8500 209° Southwest 470 541 34,000  Level Gander Center
Thu 01:44:12 PM 56.2333 -61.9500 205° Southwest 470 541 34,000  Level Gander Center
Thu 01:45:12 PM 56.1167 -62.0667 209° Southwest 470 541 34,000  Level Gander Center
Thu 01:46:12 PM 56.0000 -62.1833 209° Southwest 470 541 34,000  Level Gander Center
Thu 01:47:12 PM 55.8833 -62.3000 209° Southwest 480 552 34,000  Level Gander Center
Thu 01:48:12 PM 55.7667 -62.3833 202° Southwest 480 552 34,000  Level Gander Center
Thu 01:49:12 PM 55.6333 -62.5000 206° Southwest 480 552 34,000  Level Gander Center
Thu 01:50:12 PM 55.5167 -62.6167 210° Southwest 480 552 34,000  Level Gander Center
Thu 01:51:12 PM 55.4167 -62.7000 205° Southwest 470 541 34,000  Level Gander Center
Thu 01:52:12 PM 55.2833 -62.8000 203° Southwest 470 541 34,000  Level Gander Center
Thu 01:53:12 PM 55.1667 -62.9167 210° Southwest 470 541 34,000  Level Gander Center
Thu 01:54:12 PM 55.0500 -63.0000 202° Southwest 460 529 34,000  Level Gander Center
Thu 01:55:12 PM 54.9333 -63.1167 210° Southwest 470 541 34,000  Level Gander Center
Thu 01:56:12 PM 54.8167 -63.2333 210° Southwest 460 529 34,000  Level Gander Center
Thu 01:57:12 PM 54.7000 -63.3000 198° South 470 541 34,000  Level Gander Center
Thu 01:58:12 PM 54.5833 -63.4167 210° Southwest 460 529 34,000  Level Gander Center
Thu 01:59:12 PM 54.4833 -63.5000 206° Southwest 460 529 34,000  Level Gander Center
Thu 02:00:12 PM 54.3500 -63.6000 204° Southwest 470 541 34,000  Level Gander Center
Thu 02:01:12 PM 54.2333 -63.7167 210° Southwest 470 541 34,000  Level Gander Center
Thu 02:02:12 PM 54.1167 -63.8000 203° Southwest 470 541 34,000  Level Gander Center
Thu 02:03:12 PM 54.0000 -63.9000 207° Southwest 470 541 34,000  Level Gander Center
Thu 02:04:12 PM 53.8833 -63.9833 203° Southwest 470 541 34,000  Level Gander Center
Thu 02:05:12 PM 53.7667 -64.0833 207° Southwest 470 541 34,000  Level Gander Center
Thu 02:06:12 PM 53.6500 -64.1833 207° Southwest 470 541 34,000  Level Gander Center
Thu 02:07:12 PM 53.5333 -64.2833 207° Southwest 470 541 34,000  Level Gander Center
Thu 02:08:12 PM 53.4000 -64.4000 208° Southwest 470 541 34,000  Level Gander Center
Thu 02:09:12 PM 53.3000 -64.5000 211° Southwest 460 529 34,000  Level Gander Center
Thu 02:10:12 PM 53.1833 -64.6000 207° Southwest 470 541 34,000  Level Gander Center
Thu 02:11:12 PM 53.0667 -64.6833 203° Southwest 470 541 34,000  Level Gander Center
Thu 02:12:12 PM 52.9500 -64.8000 211° Southwest 470 541 34,000  Level Gander Center
Thu 02:13:12 PM 52.8333 -64.9167 211° Southwest 470 541 34,000  Level Gander Center
Thu 02:14:12 PM 52.7167 -65.0167 207° Southwest 470 541 34,000  Level Gander Center
Thu 02:15:12 PM 52.6000 -65.1167 208° Southwest 470 541 34,000  Level Gander Center
Thu 02:16:12 PM 52.5000 -65.1833 202° Southwest 470 541 34,000  Level Gander Center
Thu 02:17:12 PM 52.3833 -65.3167 215° Southwest 470 541 34,000  Level Gander Center
Thu 02:18:12 PM 52.2500 -65.4000 201° Southwest 470 541 34,000  Level Gander Center
Thu 02:19:12 PM 52.1333 -65.5000 208° Southwest 470 541 34,000  Level Gander Center
Thu 02:20:12 PM 52.0333 -65.5833 207° Southwest 470 541 34,000  Level Gander Center
Thu 02:21:12 PM 51.9167 -65.7000 212° Southwest 470 541 34,000  Level Gander Center
Thu 02:21:48 PM 51.8333 -65.7167 187° South 470 541 34,000  Level Moncton Center
Thu 02:22:48 PM 51.7167 -65.7667 195° South 480 552 34,000  Level Moncton Center
Thu 02:23:48 PM 51.5667 -65.8167 192° South 490 564 34,000  Level Moncton Center
Thu 02:24:48 PM 51.4333 -65.8667 193° South 490 564 34,000  Level Moncton Center
Thu 02:25:48 PM 51.3000 -65.9167 193° South 490 564 34,000  Level Moncton Center
Thu 02:26:48 PM 51.1667 -65.9500 189° South 490 564 34,000  Level Moncton Center
Thu 02:27:48 PM 51.0333 -66.0000 193° South 490 564 34,000  Level Moncton Center
Thu 02:28:48 PM 50.9000 -66.0500 193° South 490 564 34,000  Level Moncton Center
Thu 02:29:48 PM 50.7667 -66.0833 189° South 490 564 34,000  Level Moncton Center
Thu 02:30:48 PM 50.6333 -66.1333 193° South 490 564 34,000  Level Moncton Center
Thu 02:31:48 PM 50.5167 -66.1833 195° South 490 564 34,000  Level Moncton Center
Thu 02:32:48 PM 50.3667 -66.2333 192° South 490 564 34,000  Level Moncton Center
Thu 02:33:48 PM 50.2500 -66.2500 185° South 480 552 34,000  Level Moncton Center
Thu 02:34:48 PM 50.1167 -66.3333 202° Southwest 480 552 34,000  Level Moncton Center
Thu 02:35:48 PM 50.0000 -66.4000 200° South 470 541 34,000  Level Moncton Center
Thu 02:36:48 PM 49.8667 -66.4833 202° Southwest 470 541 34,000  Level Moncton Center
Thu 02:37:48 PM 49.7333 -66.5500 198° South 470 541 34,000  Level Moncton Center
Thu 02:38:48 PM 49.6167 -66.6000 196° South 460 529 34,000  Level Moncton Center
Thu 02:39:48 PM 49.5000 -66.6667 200° South 460 529 34,000  Level Moncton Center
Thu 02:40:48 PM 49.3833 -66.7333 200° South 460 529 34,000  Level Moncton Center
Thu 02:42:12 PM 49.2167 -66.8333 201° Southwest 460 529 34,000  Level Gander Center
Thu 02:42:48 PM 49.1500 -66.8833 206° Southwest 460 529 34,000  Level Moncton Center
Thu 02:43:48 PM 49.0333 -66.9333 196° South 460 529 34,000  Level Moncton Center
Thu 02:44:48 PM 48.9000 -67.0000 198° South 460 529 34,000  Level Moncton Center
Thu 02:45:48 PM 48.7667 -67.0667 198° South 460 529 34,000  Level Moncton Center
Thu 02:46:48 PM 48.6500 -67.1333 201° Southwest 460 529 34,000  Level Moncton Center
Thu 02:52:53 PM 47.9240 -67.5180 201° Southwest 461 531 34,000  Level FlightAware ADS-B
Thu 02:53:33 PM 47.8430 -67.5600 199° South 463 533 34,000  Level FlightAware ADS-B
Thu 02:54:13 PM 47.7660 -67.5990 199° South 464 534 34,000  Level FlightAware ADS-B
Thu 02:55:14 PM 47.6480 -67.6590 199° South 464 534 34,000  Level FlightAware ADS-B
Thu 02:55:52 PM 47.5620 -67.7020 199° South 460 529 34,000  Level FlightAware ADS-B
Thu 02:56:38 PM 47.4760 -67.7460 199° South 458 527 34,000  Level FlightAware ADS-B
Thu 02:57:18 PM 47.3950 -67.7870 199° South 459 528 34,000  Level FlightAware ADS-B
Thu 02:57:58 PM 47.3140 -67.8270 199° South 458 527 34,000  Level FlightAware ADS-B
Thu 02:58:40 PM 47.2270 -67.8710 199° South 457 526 34,000  Level FlightAware ADS-B
Thu 02:59:25 PM 47.1360 -67.9160 199° South 457 526 34,000  Level FlightAware ADS-B
Thu 03:00:05 PM 47.0560 -67.9560 199° South 456 525 34,000  Level FlightAware ADS-B
Thu 03:00:45 PM 46.9760 -67.9950 198° South 459 528 34,000  Level FlightAware ADS-B
Thu 03:01:25 PM 46.8990 -68.0330 199° South 455 524 34,000  Level FlightAware ADS-B
Thu 03:02:42 PM 46.7610 -68.1000 198° South 452 520 34,000  Level FlightAware ADS-B
Thu 03:04:00 PM 46.6550 -68.1450 196° South 457 526 34,000  Level FlightAware ADS-B
Thu 03:04:43 PM 46.4990 -68.2090 196° South 457 526 34,000  Level FlightAware ADS-B
Thu 03:05:26 PM 46.4120 -68.2450 196° South 451 519 34,000  Level FlightAware ADS-B
Thu 03:06:07 PM 46.3270 -68.2800 196° South 451 519 34,000  Level FlightAware ADS-B
Thu 03:06:52 PM 46.2350 -68.3180 196° South 454 522 34,000  Level FlightAware ADS-B
Thu 03:07:27 PM 46.1640 -68.3470 196° South 453 521 34,000  Level FlightAware ADS-B
Thu 03:08:23 PM 46.0540 -68.3920 196° South 459 528 34,000  Level FlightAware ADS-B
Thu 03:08:52 PM 45.9970 -68.4150 196° South 453 521 34,000  Level FlightAware ADS-B
Thu 03:09:41 PM 45.8890 -68.4590 196° South 464 534 34,000  Level FlightAware ADS-B
Thu 03:10:24 PM 45.7960 -68.4960 196° South 465 535 34,000  Level FlightAware ADS-B
Thu 03:11:34 PM 45.6810 -68.5420 196° South 465 535 34,000 114 Level FlightAware ADS-B
Thu 03:12:09 PM 45.5830 -68.5820 196° South 472 543 34,200 701 Climbing FlightAware ADS-B
Thu 03:12:51 PM 45.4910 -68.6190 196° South 473 544 34,900 1,084 Climbing FlightAware ADS-B
Thu 03:13:32 PM 45.4040 -68.6530 195° South 464 534 35,700 805 Climbing FlightAware ADS-B
Thu 03:14:13 PM 45.3210 -68.6860 196° South 461 531 36,000 220 Climbing FlightAware ADS-B
Thu 03:14:54 PM 45.2370 -68.7190 195° South 461 531 36,000  Level FlightAware ADS-B
Thu 03:15:39 PM 45.1440 -68.7560 196° South 460 529 36,000  Level FlightAware ADS-B
Thu 03:16:16 PM 45.0680 -68.7860 196° South 459 528 36,000  Level FlightAware ADS-B
Thu 03:16:53 PM 44.9920 -68.8150 195° South 458 527 36,000  Level FlightAware ADS-B
Thu 03:17:33 PM 44.9140 -68.8460 196° South 460 529 36,000  Level FlightAware ADS-B
Thu 03:18:17 PM 44.8220 -68.8880 198° South 455 524 36,000  Level FlightAware ADS-B
Thu 03:18:59 PM 44.7440 -68.9390 205° Southwest 447 514 36,000  Level FlightAware ADS-B
Thu 03:19:43 PM 44.6620 -68.9970 207° Southwest 447 514 36,000  Level FlightAware ADS-B
Thu 03:20:23 PM 44.5870 -69.0480 206° Southwest 449 517 36,000  Level FlightAware ADS-B
Thu 03:21:05 PM 44.5100 -69.1000 206° Southwest 450 518 36,000  Level FlightAware ADS-B
Thu 03:21:47 PM 44.4320 -69.1530 206° Southwest 453 521 36,000  Level FlightAware ADS-B
Thu 03:22:31 PM 44.3470 -69.2100 206° Southwest 454 522 36,000  Level FlightAware ADS-B
Thu 03:23:11 PM 44.2760 -69.2580 206° Southwest 457 526 36,000  Level FlightAware ADS-B
Thu 03:23:55 PM 44.1860 -69.3180 206° Southwest 460 529 36,000  Level FlightAware ADS-B
Thu 03:24:33 PM 44.1150 -69.3660 206° Southwest 463 533 36,000  Level FlightAware ADS-B
Thu 03:25:15 PM 44.0340 -69.4190 205° Southwest 464 534 36,000  Level FlightAware ADS-B
Thu 03:25:47 PM 43.9730 -69.4600 206° Southwest 464 534 36,000  Level FlightAware ADS-B
Thu 03:26:56 PM 43.8280 -69.5250 198° South 484 557 36,000  Level FlightAware ADS-B
Thu 03:27:42 PM 43.7270 -69.5550 192° South 484 557 36,000  Level FlightAware ADS-B
Thu 03:28:27 PM 43.6320 -69.5820 192° South 484 557 36,000  Level FlightAware ADS-B
Thu 03:29:22 PM 43.5160 -69.6150 192° South 476 548 36,000  Level FlightAware ADS-B
Thu 03:30:56 PM 43.3100 -69.6750 192° South 477 549 36,000  Level FlightAware ADS-B
Thu 03:31:36 PM 43.2210 -69.7000 192° South 477 549 36,000  Level FlightAware ADS-B
Thu 03:32:16 PM 43.1360 -69.7240 192° South 477 549 36,000  Level FlightAware ADS-B
Thu 03:33:01 PM 43.0440 -69.7510 192° South 478 550 36,000  Level FlightAware ADS-B
Thu 03:33:41 PM 42.9600 -69.7750 192° South 477 549 36,000  Level FlightAware ADS-B
Thu 03:34:21 PM 42.8710 -69.8000 192° South 477 549 36,000  Level FlightAware ADS-B
Thu 03:35:01 PM 42.7850 -69.8240 192° South 477 549 36,000  Level FlightAware ADS-B
Thu 03:35:46 PM 42.6890 -69.8510 192° South 477 549 36,000  Level FlightAware ADS-B
Thu 03:36:31 PM 42.5820 -69.8810 192° South 478 550 36,000  Level FlightAware ADS-B
Thu 03:37:26 PM 42.4650 -69.9140 192° South 475 547 36,000  Level FlightAware ADS-B
Thu 03:37:56 PM 42.3990 -69.9320 191° South 476 548 36,000  Level FlightAware ADS-B
Thu 03:38:36 PM 42.3120 -69.9560 192° South 474 545 36,000  Level FlightAware ADS-B
Thu 03:39:16 PM 42.2260 -69.9800 192° South 479 551 36,000  Level FlightAware ADS-B
Thu 03:39:51 PM 42.1500 -70.0060 194° South 476 548 36,000  Level FlightAware ADS-B
Thu 03:40:36 PM 42.0600 -70.0560 202° Southwest 471 542 36,000  Level FlightAware ADS-B
Thu 03:41:16 PM 41.9840 -70.1170 211° Southwest 467 537 36,000  Level FlightAware ADS-B
Thu 03:42:01 PM 41.9150 -70.1920 219° Southwest 466 536 36,000  Level FlightAware ADS-B
Thu 03:42:42 PM 41.8520 -70.2810 226° Southwest 458 527 36,000  Level FlightAware ADS-B
Thu 03:43:26 PM 41.7900 -70.3710 227° Southwest 459 528 36,000  Level FlightAware ADS-B
Thu 03:44:06 PM 41.7280 -70.4620 228° Southwest 460 529 36,000  Level FlightAware ADS-B
Thu 03:44:42 PM 41.6780 -70.5330 227° Southwest 461 531 36,000  Level FlightAware ADS-B
Thu 03:46:45 PM 41.5160 -70.7680 227° Southwest 471 542 36,000  Level FlightAware ADS-B
Thu 03:47:36 PM 41.4190 -70.9070 227° Southwest 473 544 36,000  Level FlightAware ADS-B
Thu 03:48:26 PM 41.3440 -71.0140 227° Southwest 474 545 36,000  Level FlightAware ADS-B
Thu 03:49:06 PM 41.2870 -71.1030 230° Southwest 465 535 36,000  Level FlightAware ADS-B
Thu 03:49:46 PM 41.2420 -71.1990 238° Southwest 465 535 36,000  Level FlightAware ADS-B
Thu 03:50:26 PM 41.2080 -71.3050 247° West 458 527 36,000  Level FlightAware ADS-B
Thu 03:51:21 PM 41.1680 -71.4480 250° West 461 531 36,000  Level FlightAware ADS-B
Thu 03:52:02 PM 41.1360 -71.5612 249° West 464 534 36,000  Level FlightAware ADS-B
Thu 03:52:43 PM 41.1047 -71.6718 249° West 465 535 36,000  Level FlightAware ADS-B
Thu 03:53:24 PM 41.0743 -71.7786 249° West 465 535 36,000  Level FlightAware ADS-B
Thu 03:54:02 PM 41.0450 -71.8810 249° West 462 532 36,000  Level FlightAware ADS-B
Thu 03:54:41 PM 41.0160 -71.9822 249° West 461 531 36,000  Level FlightAware ADS-B
Thu 03:55:11 PM 40.9932 -72.0613 249° West 460 529 36,000  Level FlightAware ADS-B
Thu 03:55:46 PM 40.9669 -72.1520 249° West 461 531 36,000  Level FlightAware ADS-B
Thu 03:56:16 PM 40.9376 -72.2302 244° Southwest 461 531 36,000  Level FlightAware ADS-B
Thu 03:56:46 PM 40.9028 -72.3018 237° Southwest 464 534 36,000  Level FlightAware ADS-B
Thu 03:57:11 PM 40.8707 -72.3561 232° Southwest 466 536 36,000  Level FlightAware ADS-B
Thu 03:57:34 PM 40.8370 -72.4043 227° Southwest 468 539 36,000  Level FlightAware ADS-B
Thu 03:58:07 PM 40.7829 -72.4684 222° Southwest 470 541 36,000  Level FlightAware ADS-B
Thu 03:58:43 PM 40.7259 -72.5358 222° Southwest 468 539 36,000  Level FlightAware ADS-B
Thu 03:59:15 PM 40.6750 -72.5984 223° Southwest 467 537 36,000  Level FlightAware ADS-B
Thu 03:59:51 PM 40.6180 -72.6660 222° Southwest 469 540 36,000  Level FlightAware ADS-B
Thu 04:00:06 PM 40.5929 -72.6946 221° Southwest 469 540 36,000  Level FlightAware ADS-B
Thu 04:01:17 PM 40.4758 -72.8281 221° Southwest 469 540 36,000  Level FlightAware ADS-B
Thu 04:01:59 PM 40.4070 -72.9060 221° Southwest 472 543 36,000  Level FlightAware ADS-B
Thu 04:02:12 PM 40.3853 -72.9312 221° Southwest 472 543 36,000  Level FlightAware ADS-B
Thu 04:02:56 PM 40.3127 -73.0137 221° Southwest 471 542 36,000  Level FlightAware ADS-B
Thu 04:03:31 PM 40.2559 -73.0781 221° Southwest 471 542 36,000  Level FlightAware ADS-B
Thu 04:04:04 PM 40.2012 -73.1401 221° Southwest 471 542 36,000  Level FlightAware ADS-B
Thu 04:04:37 PM 40.1483 -73.1998 221° Southwest 472 543 36,000  Level FlightAware ADS-B
Thu 04:05:24 PM 40.0690 -73.2891 221° Southwest 473 544 36,000  Level FlightAware ADS-B
Thu 04:05:59 PM 40.0107 -73.3544 221° Southwest 473 544 36,000  Level FlightAware ADS-B
Thu 04:06:31 PM 39.9584 -73.4131 221° Southwest 472 543 36,000  Level FlightAware ADS-B
Thu 04:07:01 PM 39.9078 -73.4695 221° Southwest 472 543 36,000  Level FlightAware ADS-B
Thu 04:07:32 PM 39.8569 -73.5263 221° Southwest 473 544 36,000  Level FlightAware ADS-B
Thu 04:08:03 PM 39.8055 -73.5836 221° Southwest 474 545 36,000  Level FlightAware ADS-B
Thu 04:08:39 PM 39.7451 -73.6507 221° Southwest 474 545 36,000  Level FlightAware ADS-B
Thu 04:09:13 PM 39.6896 -73.7122 220° Southwest 475 547 36,000  Level FlightAware ADS-B
Thu 04:09:43 PM 39.6388 -73.7684 220° Southwest 475 547 36,000  Level FlightAware ADS-B
Thu 04:10:15 PM 39.5854 -73.8273 220° Southwest 475 547 36,000  Level FlightAware ADS-B
Thu 04:10:48 PM 39.5304 -73.8878 220° Southwest 475 547 36,000  Level FlightAware ADS-B
Thu 04:11:21 PM 39.4757 -73.9480 220° Southwest 477 549 36,000  Level FlightAware ADS-B
Thu 04:11:53 PM 39.4220 -74.0069 220° Southwest 476 548 36,000  Level FlightAware ADS-B
Thu 04:12:26 PM 39.3658 -74.0683 220° Southwest 475 547 36,000  Level FlightAware ADS-B
Thu 04:12:57 PM 39.3137 -74.1253 220° Southwest 475 547 36,000  Level FlightAware ADS-B
Thu 04:13:54 PM 39.2178 -74.2295 220° Southwest 475 547 36,000  Level FlightAware ADS-B
Thu 04:14:25 PM 39.1660 -74.2859 220° Southwest 475 547 36,000  Level FlightAware ADS-B
Thu 04:14:58 PM 39.1118 -74.3445 220° Southwest 475 547 36,000  Level FlightAware ADS-B
Thu 04:15:30 PM 39.0580 -74.4026 220° Southwest 475 547 36,000  Level FlightAware ADS-B
Thu 04:16:03 PM 39.0030 -74.4620 220° Southwest 475 547 36,000  Level FlightAware ADS-B
Thu 04:16:13 PM 38.9849 -74.4815 220° Southwest 476 548 36,000  Level FlightAware ADS-B
Thu 04:16:44 PM 38.9329 -74.5375 220° Southwest 474 545 36,000  Level FlightAware ADS-B
Thu 04:17:15 PM 38.8805 -74.5937 220° Southwest 475 547 36,000  Level FlightAware ADS-B
Thu 04:17:49 PM 38.8300 -74.6480 220° Southwest 469 540 36,000  Level FlightAware ADS-B
Thu 04:18:04 PM 38.7985 -74.6815 220° Southwest 476 548 36,000  Level FlightAware ADS-B
Thu 04:18:34 PM 38.7476 -74.7358 220° Southwest 478 550 36,000  Level FlightAware ADS-B
Thu 04:19:05 PM 38.6943 -74.7926 220° Southwest 478 550 36,000  Level FlightAware ADS-B
Thu 04:19:40 PM 38.6348 -74.8559 220° Southwest 479 551 36,000  Level FlightAware ADS-B
Thu 04:20:12 PM 38.5809 -74.9131 220° Southwest 480 552 36,000  Level FlightAware ADS-B
Thu 04:20:45 PM 38.5242 -74.9732 220° Southwest 480 552 36,000  Level FlightAware ADS-B
Thu 04:21:51 PM 38.4113 -75.0927 220° Southwest 479 551 36,000  Level FlightAware ADS-B
Thu 04:22:22 PM 38.3596 -75.1471 220° Southwest 479 551 36,000  Level FlightAware ADS-B
Thu 04:22:53 PM 38.3057 -75.2037 219° Southwest 478 550 36,000  Level FlightAware ADS-B
Thu 04:23:41 PM 38.2240 -75.2893 219° Southwest 477 549 36,000  Level FlightAware ADS-B
Thu 04:24:17 PM 38.1591 -75.3478 215° Southwest 477 549 36,000  Level FlightAware ADS-B
Thu 04:24:26 PM 38.1425 -75.3590 208° Southwest 476 548 36,000  Level FlightAware ADS-B
Thu 04:24:58 PM 38.0813 -75.4011 208° Southwest 477 549 36,000  Level FlightAware ADS-B
Thu 04:25:28 PM 38.0223 -75.4420 209° Southwest 477 549 36,000  Level FlightAware ADS-B
Thu 04:26:41 PM 37.9030 -75.5250 209° Southwest 478 550 36,000  Level FlightAware ADS-B
Thu 04:27:21 PM 37.8090 -75.5910 209° Southwest 477 549 36,000  Level FlightAware ADS-B
Thu 04:27:39 PM 37.7692 -75.6184 209° Southwest 478 550 36,000  Level FlightAware ADS-B
Thu 04:28:09 PM 37.7102 -75.6594 209° Southwest 477 549 36,000  Level FlightAware ADS-B
Thu 04:28:41 PM 37.6484 -75.7022 209° Southwest 477 549 36,000  Level FlightAware ADS-B
Thu 04:29:16 PM 37.5823 -75.7479 209° Southwest 478 550 36,000  Level FlightAware ADS-B
Thu 04:30:08 PM 37.4830 -75.8160 209° Southwest 477 549 36,000  Level FlightAware ADS-B
Thu 04:30:51 PM 37.4100 -75.8670 209° Southwest 476 548 36,000  Level FlightAware ADS-B
Thu 04:31:26 PM 37.3330 -75.9190 208° Southwest 476 548 36,000  Level FlightAware ADS-B
Thu 04:32:05 PM 37.2540 -75.9734 209° Southwest 477 549 36,000  Level FlightAware ADS-B
Thu 04:32:36 PM 37.1939 -76.0145 209° Southwest 479 551 36,000  Level FlightAware ADS-B
Thu 04:33:09 PM 37.1295 -76.0583 208° Southwest 480 552 36,000  Level FlightAware ADS-B
Thu 04:33:40 PM 37.0686 -76.0997 208° Southwest 481 554 36,000  Level FlightAware ADS-B
Thu 04:34:11 PM 37.0074 -76.1413 208° Southwest 481 554 36,000  Level FlightAware ADS-B
Thu 04:34:48 PM 36.9366 -76.1893 208° Southwest 480 552 36,000  Level FlightAware ADS-B
Thu 04:35:27 PM 36.8604 -76.2409 208° Southwest 480 552 36,000  Level FlightAware ADS-B
Thu 04:35:58 PM 36.7996 -76.2818 208° Southwest 480 552 36,000  Level FlightAware ADS-B
Thu 04:36:54 PM 36.6903 -76.3553 208° Southwest 480 552 36,000  Level FlightAware ADS-B
Thu 04:37:30 PM 36.6330 -76.3940 208° Southwest 477 549 36,000  Level FlightAware ADS-B
Thu 04:38:11 PM 36.5510 -76.4490 208° Southwest 476 548 36,000  Level FlightAware ADS-B
Thu 04:38:56 PM 36.4560 -76.5120 208° Southwest 475 547 36,000  Level FlightAware ADS-B
Thu 04:39:36 PM 36.3790 -76.5630 208° Southwest 474 545 36,000  Level FlightAware ADS-B
Thu 04:42:45 PM 36.0640 -76.7710 208° Southwest 474 545 36,000  Level FlightAware ADS-B
Thu 04:43:25 PM 35.9670 -76.8360 208° Southwest 475 547 36,000  Level FlightAware ADS-B
Thu 04:44:35 PM 35.8380 -76.9210 208° Southwest 476 548 36,000  Level FlightAware ADS-B
Thu 04:45:48 PM 35.6717 -77.0239 208° Southwest 479 551 36,000  Level Washington Center
Thu 04:46:49 PM 35.5475 -77.1083 209° Southwest 479 551 36,000  Level Washington Center
Thu 04:47:47 PM 35.4319 -77.1828 208° Southwest 479 551 36,000  Level Washington Center
Thu 04:48:48 PM 35.3139 -77.2592 208° Southwest 479 551 36,000  Level Washington Center
Thu 04:49:49 PM 35.1983 -77.3331 208° Southwest 479 551 36,000  Level Washington Center
Thu 04:50:48 PM 35.0781 -77.4117 208° Southwest 479 551 36,000  Level Washington Center
Thu 04:51:49 PM 34.9622 -77.4853 208° Southwest 479 551 36,000  Level Washington Center
Thu 04:52:47 PM 34.8442 -77.5608 208° Southwest 479 551 36,000  Level Washington Center
Thu 04:53:48 PM 34.7406 -77.6342 210° Southwest 479 551 36,000  Level Washington Center
Thu 04:59:25 PM 34.0290 -77.9680 210° Southwest 480 552 36,000  Level FlightAware ADS-B
Thu 05:00:50 PM 33.8460 -78.0210 194° South 478 550 36,000  Level FlightAware ADS-B
Thu 05:01:25 PM 33.7700 -78.0430 194° South 476 548 36,000  Level FlightAware ADS-B
Thu 05:02:05 PM 33.6840 -78.0680 194° South 475 547 36,000  Level FlightAware ADS-B
Thu 05:03:06 PM 33.5680 -78.1010 193° South 475 547 36,000  Level FlightAware ADS-B
Thu 05:03:42 PM 33.5660 -78.1010 180° South 475 547 36,000  Level FlightAware ADS-B
Thu 05:04:20 PM 33.3990 -78.1490 193° South 476 548 36,000  Level FlightAware ADS-B
Thu 05:05:02 PM 33.3170 -78.1720 193° South 476 548 36,000  Level FlightAware ADS-B
Thu 05:05:45 PM 33.2120 -78.2020 193° South 474 545 36,000  Level FlightAware ADS-B
Thu 05:06:35 PM 33.1070 -78.2320 193° South 473 544 36,000  Level FlightAware ADS-B
Thu 05:07:15 PM 33.0230 -78.2560 193° South 473 544 36,000  Level FlightAware ADS-B
Thu 05:08:05 PM 32.9170 -78.2860 193° South 474 545 36,000  Level FlightAware ADS-B
Thu 05:08:36 PM 32.8520 -78.3040 193° South 474 545 36,000  Level FlightAware ADS-B
Thu 05:09:21 PM 32.7610 -78.3300 194° South 473 544 36,000  Level FlightAware ADS-B
Thu 05:10:01 PM 32.6670 -78.3560 193° South 473 544 36,000  Level FlightAware ADS-B
Thu 05:10:51 PM 32.5600 -78.3860 193° South 475 547 36,000  Level FlightAware ADS-B
Thu 05:11:31 PM 32.4820 -78.4070 193° South 475 547 36,000  Level FlightAware ADS-B
Thu 05:12:16 PM 32.3780 -78.4370 194° South 476 548 36,000  Level FlightAware ADS-B
Thu 05:13:05 PM 32.2920 -78.4630 194° South 476 548 36,000  Level FlightAware ADS-B
Thu 05:13:43 PM 32.2040 -78.4880 194° South 476 548 36,000  Level FlightAware ADS-B
Thu 05:14:23 PM 32.2060 -78.4870 23° Northeast 475 547 36,000  Level FlightAware ADS-B
Thu 05:15:11 PM 32.1180 -78.5110 193° South 475 547 36,000  Level FlightAware ADS-B
Thu 05:15:48 PM 32.0510 -78.5290 193° South 475 547 36,000  Level FlightAware ADS-B
Thu 05:16:22 PM 31.9890 -78.5460 193° South 475 547 36,000  Level FlightAware ADS-B
Thu 05:17:08 PM 31.9050 -78.5690 193° South 475 547 36,000  Level FlightAware ADS-B
Thu 05:17:44 PM 31.8400 -78.5870 193° South 475 547 36,000  Level FlightAware ADS-B
Thu 05:18:32 PM 31.7530 -78.6100 193° South 475 547 36,000  Level FlightAware ADS-B
Thu 05:19:10 PM 31.6830 -78.6290 193° South 475 547 36,000  Level FlightAware ADS-B
Thu 05:22:20 PM 31.3380 -78.7230 193° South 475 547 36,000  Level FlightAware ADS-B
Thu 05:22:58 PM 31.2680 -78.7410 192° South 475 547 36,000  Level FlightAware ADS-B
Thu 05:24:19 PM 30.8567 -78.8781 192° South 475 547 36,000  Level Jacksonville Center
Thu 05:25:19 PM 30.7261 -78.9103 192° South 467 537 36,000  Level Jacksonville Center
Thu 05:26:17 PM 30.6089 -78.9444 194° South 480 552 36,000  Level Miami Center
Thu 05:27:17 PM 30.4875 -78.9806 194° South 486 559 36,000  Level Miami Center
Thu 05:28:17 PM 30.3556 -79.0236 196° South 480 552 36,000  Level Miami Center
Thu 05:29:17 PM 30.2381 -79.0764 201° Southwest 474 545 36,000  Level Miami Center
Thu 05:30:17 PM 30.1142 -79.1267 199° South 469 540 36,000  Level Miami Center
Thu 05:31:17 PM 29.9861 -79.1886 203° Southwest 469 540 36,000  Level Miami Center
Thu 05:32:17 PM 29.8686 -79.2364 199° South 464 534 36,000  Level Miami Center
Thu 05:33:17 PM 29.7531 -79.2936 203° Southwest 457 526 36,000  Level Miami Center
Thu 05:34:17 PM 29.6311 -79.3408 199° South 457 526 36,000  Level Miami Center
Thu 05:35:17 PM 29.5156 -79.3956 202° Southwest 457 526 36,000  Level Miami Center
Thu 05:36:17 PM 29.3978 -79.4428 199° South 457 526 36,000  Level Miami Center
Thu 05:37:17 PM 29.2781 -79.4900 199° South 457 526 36,000  Level Miami Center
Thu 05:38:17 PM 29.1603 -79.5417 201° Southwest 457 526 36,000  Level Miami Center
Thu 05:39:17 PM 29.0406 -79.5817 196° South 452 520 36,000  Level Miami Center
Thu 05:40:17 PM 28.9150 -79.6022 188° South 452 520 36,000  Level Miami Center
Thu 05:41:17 PM 28.7917 -79.6253 189° South 452 520 36,000  Level Miami Center
Thu 05:42:17 PM 28.6658 -79.6481 189° South 452 520 36,000  Level Miami Center
Thu 05:43:17 PM 28.5383 -79.6686 188° South 457 526 36,000  Level Miami Center
Thu 05:49:18 PM 27.7750 -79.8040 188° South 456 525 36,000  Level FlightAware ADS-B
Thu 05:49:55 PM 27.7080 -79.8150 188° South 456 525 36,000  Level FlightAware ADS-B
Thu 05:50:31 PM 27.6440 -79.8250 188° South 456 525 36,000  Level FlightAware ADS-B
Thu 05:51:15 PM 27.5320 -79.8470 190° South 456 525 36,000  Level FlightAware ADS-B
Thu 05:51:55 PM 27.4610 -79.8580 188° South 456 525 36,000  Level FlightAware ADS-B
Thu 05:52:43 PM 27.3500 -79.8780 189° South 454 522 36,000  Level FlightAware ADS-B
Thu 05:53:20 PM 27.2730 -79.8920 189° South 454 522 36,000  Level FlightAware ADS-B
Thu 05:54:06 PM 27.1790 -79.9080 189° South 455 524 36,000  Level FlightAware ADS-B
Thu 05:54:46 PM 27.0940 -79.9230 189° South 457 526 36,000  Level FlightAware ADS-B
Thu 05:55:30 PM 27.0010 -79.9390 189° South 452 520 36,000  Level FlightAware ADS-B
Thu 05:56:10 PM 26.9190 -79.9540 189° South 451 519 36,000  Level FlightAware ADS-B
Thu 05:56:54 PM 26.8290 -79.9690 188° South 450 518 36,000  Level FlightAware ADS-B
Thu 05:57:34 PM 26.7450 -79.9840 189° South 450 518 36,000  Level FlightAware ADS-B
Thu 05:58:17 PM 26.6560 -79.9990 189° South 450 518 36,000  Level FlightAware ADS-B
Thu 05:58:58 PM 26.5720 -80.0140 189° South 451 519 36,000  Level FlightAware ADS-B
Thu 05:59:41 PM 26.4820 -80.0290 188° South 452 520 36,000  Level FlightAware ADS-B
Thu 06:00:26 PM 26.3900 -80.0450 189° South 454 522 36,000  Level FlightAware ADS-B
Thu 06:01:02 PM 26.3190 -80.0740 200° South 451 519 36,000  Level FlightAware ADS-B
Thu 06:01:41 PM 26.2500 -80.1250 214° Southwest 449 517 36,000  Level FlightAware ADS-B
Thu 06:02:23 PM 26.1760 -80.1790 213° Southwest 451 519 36,000  Level FlightAware ADS-B
Thu 06:03:03 PM 26.1200 -80.2430 226° Southwest 441 507 36,000  Level FlightAware ADS-B
Thu 06:03:33 PM 26.0760 -80.2920 225° Southwest 443 510 36,000  Level FlightAware ADS-B
Thu 06:04:20 PM 26.0080 -80.3680 225° Southwest 451 519 36,000  Level FlightAware ADS-B
Thu 06:04:58 PM 25.9510 -80.4320 225° Southwest 449 517 36,000  Level FlightAware ADS-B
Thu 06:05:45 PM 25.8820 -80.5070 224° Southwest 455 524 36,000  Level FlightAware ADS-B
Thu 06:06:30 PM 25.8150 -80.5790 224° Southwest 451 519 36,000  Level FlightAware ADS-B
Thu 06:07:08 PM 25.7580 -80.6430 225° Southwest 448 516 36,000  Level FlightAware ADS-B
Thu 06:07:52 PM 25.6920 -80.7130 224° Southwest 446 513 36,000  Level FlightAware ADS-B
Thu 06:08:24 PM 25.6470 -80.7620 224° Southwest 441 507 36,000  Level FlightAware ADS-B
Thu 06:09:10 PM 25.5810 -80.8350 225° Southwest 447 514 36,000  Level FlightAware ADS-B
Thu 06:09:50 PM 25.5200 -80.9000 224° Southwest 449 517 36,000  Level FlightAware ADS-B
Thu 06:10:25 PM 25.4680 -80.9580 225° Southwest 454 522 36,000  Level FlightAware ADS-B
Thu 06:11:30 PM 25.3920 -81.0390 224° Southwest 452 520 36,000  Level FlightAware ADS-B
Thu 06:12:15 PM 25.3030 -81.1350 224° Southwest 439 505 36,000  Level FlightAware ADS-B
Thu 06:12:50 PM 25.2520 -81.1910 225° Southwest 449 517 36,000  Level FlightAware ADS-B
Thu 06:13:30 PM 25.1900 -81.2570 224° Southwest 455 524 36,000  Level FlightAware ADS-B
Thu 06:14:15 PM 25.1220 -81.3310 225° Southwest 453 521 36,000  Level FlightAware ADS-B
Thu 06:14:55 PM 25.0630 -81.3930 224° Southwest 451 519 36,000  Level FlightAware ADS-B
Thu 06:15:40 PM 24.9970 -81.4650 225° Southwest 444 511 36,000  Level FlightAware ADS-B
Thu 06:16:19 PM 24.9390 -81.5260 224° Southwest 454 522 36,000 -150 Level FlightAware ADS-B
Thu 06:17:00 PM 24.8760 -81.5930 224° Southwest 454 522 35,800 -593 Descending FlightAware ADS-B
Thu 06:17:40 PM 24.8150 -81.6580 224° Southwest 435 501 35,200 -975 Descending FlightAware ADS-B
Thu 06:18:20 PM 24.7590 -81.7180 224° Southwest 432 497 34,500 -900 Descending FlightAware ADS-B
Thu 06:19:00 PM 24.6990 -81.7820 224° Southwest 428 493 34,000 -714 Descending FlightAware ADS-B
Thu 06:19:44 PM 24.6350 -81.8500 224° Southwest 431 496 33,500 -655 Descending FlightAware ADS-B
Thu 06:19:55 PM 24.6210 -81.8640 222° Southwest 432 497 33,400 -745 Descending FlightAware ADS-B
Thu 06:22:09 PM 24.4440 -82.0520 224° Southwest 429 494 31,700 -903 Descending FlightAware ADS-B
Thu 06:23:01 PM 24.3500 -82.1520 224° Southwest 434 499 30,600 -1,765 Descending FlightAware ADS-B
Thu 06:23:51 PM 24.2760 -82.2290 223° Southwest 444 511 28,700 -1,586 Descending FlightAware ADS-B
Thu 06:24:28 PM 24.2250 -82.2830 224° Southwest 444 511 28,300 -171 Descending FlightAware ADS-B
Thu 06:26:11 PM 24.0960 -82.4200 224° Southwest 444 511 28,300  Level FlightAware ADS-B
Thu 06:27:01 PM 24.0330 -82.4860 224° Southwest 444 511 28,300  Level FlightAware ADS-B
Thu 06:27:37 PM 23.9880 -82.5340 224° Southwest 444 511 28,300  Level FlightAware ADS-B
Thu 06:35:00 PM 23.0989 -82.4098 170° South  Level FlightAware Approximate
Thu 06:36:00 PM 22.9891 -82.4091 180° South  Level Estimated
Thu 06:37:00 PM 22.9891 -82.4091 180° South  Level Estimated
Thu 06:38:00 PM 22.9891 -82.4091 180° South  Level Estimated
Thu 06:39:00 PM 22.9891 -82.4091 180° South  Level Estimated
Thu 06:40:00 PM 22.9891 -82.4091 180° South  Level Estimated
Thu 06:41:00 PM 22.9891 -82.4091 180° South  Level Estimated
Thu 06:42:00 PM 22.9891 -82.4091 180° South  Level Estimated
Thu 06:43:00 PM 22.9891 -82.4091 180° South  Level Estimated
Thu 06:44:00 PM 22.9891 -82.4091 180° South  Level Estimated
Thu 06:45:00 PM 22.9891 -82.4091 180° South  Level Estimated
Thu 06:46:00 PM 22.9891 -82.4091 180° South  Level Estimated
Thu 06:47:00 PM 22.9891 -82.4091 180° South  Level Estimated
Thu 06:48:00 PM 22.9891 -82.4091 180° South  Level Estimated
Thu 06:49:00 PM 22.9891 -82.4091 180° South  Level Estimated
Thu 06:50:00 PM 22.9891 -82.4091 180° South  Level Estimated
Thu 06:51:00 PM 22.9891 -82.4091 180° South  Level Estimated
Thu 06:52:00 PM 22.9891 -82.4091 180° South  Level Estimated
Thu 06:53:00 PM 22.9891 -82.4091 180° South  Level Estimated
Thu 06:54:00 PM 22.9891 -82.4091 180° South  Level Estimated
Thu 06:55:00 PM 22.9891 -82.4091 180° South  Level Estimated
Thu 06:56:00 PM 22.9891 -82.4091 180° South  Level Estimated

Login

Don't have an account? Register now (free) for customized features, flight alerts, and more!